Time;durP1;ratioP1;P1;durP2;ratioP2;P2;SDS_P1;SDS_P2;PMS_P1;PMS_P2;Temp;Humidity;BMP_temperature;BMP_pressure;BME280_temperature;BME280_humidity;BME280_pressure;Samples;Min_cycle;Max_cycle;Signal;HPM_P1;HPM_P2
2023/07/26 00:01:05;;;;;;;1.77;0.75;;;15.60;74.90;;;;;;4807709;29;20051;-83
2023/07/26 00:03:32;;;;;;;0.75;0.40;;;15.60;75.00;;;;;;4811112;29;20077;-82
2023/07/26 00:06:01;;;;;;;1.17;0.43;;;15.60;75.10;;;;;;4809957;29;20086;-82
2023/07/26 00:08:28;;;;;;;1.35;0.50;;;15.60;75.10;;;;;;4835532;29;20050;-83
2023/07/26 00:10:55;;;;;;;1.02;0.32;;;15.70;75.10;;;;;;4830840;29;20054;-83
2023/07/26 00:13:22;;;;;;;1.25;0.50;;;15.70;75.20;;;;;;4824965;29;20070;-83
2023/07/26 00:15:49;;;;;;;1.35;0.60;;;15.60;75.30;;;;;;4813814;29;20053;-82
2023/07/26 00:18:16;;;;;;;0.60;0.40;;;15.60;75.50;;;;;;4805916;29;20486;-82
2023/07/26 00:20:43;;;;;;;1.70;0.68;;;15.60;75.60;;;;;;4812248;29;20050;-83
2023/07/26 00:23:10;;;;;;;1.75;0.60;;;15.60;75.80;;;;;;4807746;29;20061;-82
2023/07/26 00:25:37;;;;;;;1.92;0.70;;;15.60;75.90;;;;;;4804114;29;20411;-83
2023/07/26 00:28:04;;;;;;;1.33;0.60;;;15.60;75.90;;;;;;4796731;29;20072;-83
2023/07/26 00:30:31;;;;;;;1.48;0.75;;;15.70;76.00;;;;;;4810082;29;20046;-82
2023/07/26 00:32:58;;;;;;;2.17;0.73;;;15.60;76.00;;;;;;4806077;29;20043;-82
2023/07/26 00:35:29;;;;;;;1.67;0.65;;;15.70;76.00;;;;;;4806527;29;20702;-82
2023/07/26 00:37:56;;;;;;;3.88;0.90;;;15.70;76.00;;;;;;4807773;29;20061;-82
2023/07/26 00:40:25;;;;;;;2.15;0.88;;;15.80;76.20;;;;;;4805163;29;20085;-81
2023/07/26 00:42:52;;;;;;;2.60;0.95;;;15.80;76.20;;;;;;4805073;29;20051;-81
2023/07/26 00:45:19;;;;;;;1.80;0.93;;;15.80;76.20;;;;;;4805553;29;20841;-82
2023/07/26 00:47:47;;;;;;;1.80;0.88;;;15.80;76.20;;;;;;4807858;29;20126;-82
2023/07/26 00:50:15;;;;;;;2.33;0.98;;;15.80;76.30;;;;;;4812813;29;20083;-82
2023/07/26 00:52:43;;;;;;;2.17;1.10;;;15.80;76.50;;;;;;4808022;29;20039;-82
2023/07/26 00:55:10;;;;;;;2.28;1.10;;;15.80;76.70;;;;;;4820605;29;20046;-82
2023/07/26 00:57:38;;;;;;;2.00;1.20;;;15.80;76.90;;;;;;4817523;29;20487;-82
2023/07/26 01:00:07;;;;;;;2.83;1.30;;;15.70;77.20;;;;;;4821034;29;20090;-82
2023/07/26 01:02:34;;;;;;;1.77;0.90;;;15.60;77.30;;;;;;4825928;29;20068;-82
2023/07/26 01:05:03;;;;;;;2.45;1.10;;;15.60;77.60;;;;;;4813233;29;20503;-82
2023/07/26 01:07:54;;;;;;;2.30;0.98;;;15.40;78.00;;;;;;4808914;29;20051;-81
2023/07/26 01:10:38;;;;;;;2.25;1.08;;;15.40;78.20;;;;;;4821746;29;20046;-82
2023/07/26 01:13:24;;;;;;;2.40;1.00;;;15.30;78.40;;;;;;4821993;29;20155;-82
2023/07/26 01:15:52;;;;;;;3.92;1.00;;;15.20;78.70;;;;;;4845417;29;20375;-81
2023/07/26 01:18:19;;;;;;;2.25;0.95;;;15.10;78.80;;;;;;4803447;29;20452;-81
2023/07/26 01:20:47;;;;;;;1.88;0.80;;;15.00;78.90;;;;;;4831725;29;20053;-81
2023/07/26 01:23:14;;;;;;;1.40;0.70;;;14.90;78.90;;;;;;4813600;29;20392;-81
2023/07/26 01:25:41;;;;;;;2.05;0.80;;;14.90;79.00;;;;;;4799151;29;20062;-81
2023/07/26 01:28:08;;;;;;;1.27;0.55;;;14.80;79.00;;;;;;4802636;29;20051;-82
2023/07/26 01:30:35;;;;;;;1.08;0.45;;;14.80;79.20;;;;;;4823442;29;20134;-82
2023/07/26 01:33:05;;;;;;;1.98;0.60;;;14.70;79.30;;;;;;4841059;29;20071;-82
2023/07/26 01:35:35;;;;;;;1.08;0.50;;;14.70;79.50;;;;;;4810654;29;20084;-82
2023/07/26 01:38:02;;;;;;;2.58;0.50;;;14.60;79.60;;;;;;4819171;29;20050;-82
2023/07/26 01:40:31;;;;;;;1.40;0.60;;;14.60;79.80;;;;;;4818109;29;20069;-81
2023/07/26 01:42:59;;;;;;;3.42;0.77;;;14.60;79.90;;;;;;4804360;29;20522;-81
2023/07/26 01:45:28;;;;;;;1.30;0.60;;;14.50;80.00;;;;;;4823856;29;20042;-81
2023/07/26 01:47:55;;;;;;;1.50;0.57;;;14.50;80.00;;;;;;4817854;29;20042;-82
2023/07/26 01:50:23;;;;;;;1.50;0.52;;;14.50;80.00;;;;;;4808370;29;20072;-82
2023/07/26 01:52:51;;;;;;;1.40;0.50;;;14.40;80.10;;;;;;4802717;29;20513;-82
2023/07/26 01:55:18;;;;;;;1.95;0.70;;;14.40;80.20;;;;;;4803627;29;20034;-82
2023/07/26 01:57:45;;;;;;;1.90;0.70;;;14.40;80.30;;;;;;4802754;29;20062;-82
2023/07/26 02:00:12;;;;;;;1.08;0.40;;;14.40;80.40;;;;;;4809673;29;20518;-82
2023/07/26 02:02:39;;;;;;;3.63;0.63;;;14.30;80.50;;;;;;4808903;29;20130;-82
2023/07/26 02:05:06;;;;;;;1.33;0.52;;;14.30;80.60;;;;;;4822453;29;20057;-82
2023/07/26 02:07:34;;;;;;;1.02;0.43;;;14.30;80.70;;;;;;4809772;29;20057;-82
2023/07/26 02:10:01;;;;;;;0.90;0.45;;;14.30;80.80;;;;;;4796637;29;20047;-81
2023/07/26 02:12:28;;;;;;;1.38;0.50;;;14.20;80.90;;;;;;4813600;29;20583;-81
2023/07/26 02:14:55;;;;;;;2.50;0.73;;;14.20;81.10;;;;;;4810280;29;20065;-80
2023/07/26 02:17:23;;;;;;;1.63;0.70;;;14.20;81.30;;;;;;4803101;29;20050;-79
2023/07/26 02:19:50;;;;;;;1.50;0.73;;;14.10;81.30;;;;;;4810979;29;20510;-80
2023/07/26 02:22:17;;;;;;;1.85;0.82;;;14.10;81.40;;;;;;4806054;29;20460;-81
2023/07/26 02:24:44;;;;;;;2.03;0.63;;;14.10;81.50;;;;;;4833375;29;20058;-80
2023/07/26 02:27:11;;;;;;;1.70;0.80;;;14.00;81.60;;;;;;4824665;29;20050;-81
2023/07/26 02:29:40;;;;;;;1.80;0.60;;;14.00;81.80;;;;;;4809934;29;20050;-80
2023/07/26 02:32:07;;;;;;;2.08;1.00;;;13.90;81.80;;;;;;4816797;29;20046;-80
2023/07/26 02:34:37;;;;;;;1.50;0.60;;;13.90;82.00;;;;;;4820417;29;20460;-80
2023/07/26 02:37:04;;;;;;;2.00;1.00;;;13.80;82.10;;;;;;4809367;29;20050;-81
2023/07/26 02:39:31;;;;;;;1.77;0.88;;;13.80;82.90;;;;;;4815698;29;20054;-81
2023/07/26 02:41:58;;;;;;;2.53;1.00;;;13.80;82.40;;;;;;4826241;29;20072;-80
2023/07/26 02:44:25;;;;;;;2.78;0.90;;;13.70;82.60;;;;;;4811325;29;20046;-81
2023/07/26 02:46:52;;;;;;;1.83;0.70;;;13.70;82.70;;;;;;4822387;29;20043;-80
2023/07/26 02:49:19;;;;;;;3.67;1.10;;;13.70;82.70;;;;;;4796658;29;20054;-80
2023/07/26 02:51:46;;;;;;;1.67;0.70;;;13.60;82.80;;;;;;4820098;29;20114;-81
2023/07/26 02:54:13;;;;;;;2.10;0.80;;;13.60;83.00;;;;;;4819720;29;20056;-81
2023/07/26 02:56:40;;;;;;;3.13;0.95;;;13.60;83.10;;;;;;4811298;29;20042;-80
2023/07/26 02:59:07;;;;;;;1.88;0.93;;;13.50;83.20;;;;;;4822353;29;20057;-81
2023/07/26 03:01:34;;;;;;;1.80;0.90;;;13.50;83.30;;;;;;4804971;29;20058;-81
2023/07/26 03:04:02;;;;;;;1.77;0.82;;;13.50;83.40;;;;;;4797826;29;20108;-81
2023/07/26 03:06:30;;;;;;;2.28;0.98;;;13.50;83.50;;;;;;4822031;29;20136;-81
2023/07/26 03:08:57;;;;;;;2.47;1.08;;;13.50;83.60;;;;;;4826431;29;20073;-81
2023/07/26 03:11:24;;;;;;;1.48;0.88;;;13.40;83.70;;;;;;4825098;29;20042;-81
2023/07/26 03:13:51;;;;;;;1.52;0.73;;;13.40;83.80;;;;;;4808586;29;20051;-82
2023/07/26 03:16:18;;;;;;;1.70;0.70;;;13.30;83.90;;;;;;4809622;29;20466;-81
2023/07/26 03:18:46;;;;;;;1.63;0.80;;;13.40;84.00;;;;;;4828909;29;20089;-82
2023/07/26 03:21:13;;;;;;;1.40;0.82;;;13.30;84.10;;;;;;4843747;29;20061;-82
2023/07/26 03:23:40;;;;;;;2.10;1.10;;;13.30;84.80;;;;;;4834408;29;20119;-81
2023/07/26 03:26:07;;;;;;;3.78;1.45;;;13.30;84.20;;;;;;4805763;29;20467;-81
2023/07/26 03:28:35;;;;;;;2.28;1.05;;;13.30;84.40;;;;;;4805698;29;20391;-81
2023/07/26 03:31:05;;;;;;;2.35;0.98;;;13.30;84.40;;;;;;4809615;29;20046;-81
2023/07/26 03:33:33;;;;;;;2.60;1.00;;;13.20;84.50;;;;;;4801922;29;20049;-81
2023/07/26 03:36:00;;;;;;;2.13;1.23;;;13.20;84.60;;;;;;4816602;29;20117;-82
2023/07/26 03:38:27;;;;;;;4.00;1.30;;;13.20;84.70;;;;;;4812353;29;20133;-81
2023/07/26 03:40:54;;;;;;;1.90;1.00;;;13.10;84.80;;;;;;4810545;29;20050;-82
2023/07/26 03:43:26;;;;;;;2.40;1.30;;;13.10;84.80;;;;;;4793135;29;20246;-81
2023/07/26 03:45:56;;;;;;;2.78;1.00;;;13.10;85.50;;;;;;4822692;29;20049;-81
2023/07/26 03:48:27;;;;;;;3.10;1.58;;;13.10;85.00;;;;;;4809429;29;20054;-81
2023/07/26 03:50:54;;;;;;;2.60;1.42;;;13.10;85.00;;;;;;4795633;29;20148;-81
2023/07/26 03:53:26;;;;;;;2.97;1.05;;;13.10;85.10;;;;;;4813008;29;20046;-82
2023/07/26 03:55:55;;;;;;;2.15;1.15;;;13.00;85.10;;;;;;4829268;29;20554;-81
2023/07/26 03:58:22;;;;;;;2.10;0.98;;;13.00;85.30;;;;;;4815567;29;20073;-80
2023/07/26 04:00:50;;;;;;;2.25;1.30;;;13.00;85.30;;;;;;4809277;29;20052;-81
2023/07/26 04:03:17;;;;;;;2.55;1.05;;;13.00;85.40;;;;;;4802958;29;20053;-81
2023/07/26 04:05:45;;;;;;;2.97;1.75;;;13.00;85.40;;;;;;4814890;29;20909;-80
2023/07/26 04:08:12;;;;;;;2.63;1.25;;;13.00;85.50;;;;;;4793379;29;20042;-81
2023/07/26 04:10:39;;;;;;;2.35;1.27;;;13.00;85.50;;;;;;4801433;29;20058;-81
2023/07/26 04:13:06;;;;;;;3.10;1.35;;;13.00;85.50;;;;;;4805207;29;20038;-81
2023/07/26 04:15:33;;;;;;;4.35;1.95;;;13.00;85.50;;;;;;4806188;29;20098;-82
2023/07/26 04:18:01;;;;;;;3.47;1.50;;;13.00;85.50;;;;;;4811479;29;20137;-81
2023/07/26 04:20:28;;;;;;;2.10;1.05;;;13.10;85.50;;;;;;4824372;29;20165;-82
2023/07/26 04:22:55;;;;;;;3.40;1.30;;;13.10;85.50;;;;;;4814088;29;20070;-82
2023/07/26 04:25:22;;;;;;;2.85;1.35;;;13.20;85.40;;;;;;4813653;29;20143;-81
2023/07/26 04:27:49;;;;;;;4.00;1.90;;;13.20;85.30;;;;;;4814511;29;20134;-81
2023/07/26 04:30:16;;;;;;;2.28;1.40;;;13.30;85.40;;;;;;4807975;29;20038;-81
2023/07/26 04:32:44;;;;;;;3.80;1.40;;;13.30;85.20;;;;;;4843450;29;20057;-81
2023/07/26 04:35:11;;;;;;;2.35;1.38;;;13.40;85.10;;;;;;4804621;29;20095;-81
2023/07/26 04:37:38;;;;;;;2.00;0.90;;;13.50;85.10;;;;;;4812472;29;20096;-81
2023/07/26 04:40:05;;;;;;;2.55;1.27;;;13.50;85.20;;;;;;4806899;29;20053;-81
2023/07/26 04:42:34;;;;;;;3.53;1.63;;;13.60;85.20;;;;;;4794928;29;20145;-82
2023/07/26 04:45:01;;;;;;;3.22;1.60;;;13.60;85.30;;;;;;4792300;29;20114;-81
2023/07/26 04:47:29;;;;;;;2.33;1.40;;;13.60;85.30;;;;;;4796784;29;20145;-81
2023/07/26 04:49:59;;;;;;;3.58;1.52;;;13.60;85.40;;;;;;4809304;29;20050;-81
2023/07/26 04:52:26;;;;;;;2.70;1.58;;;13.60;85.40;;;;;;4821191;29;20052;-81
2023/07/26 04:54:57;;;;;;;2.67;1.38;;;13.60;85.50;;;;;;4825228;29;20099;-82
2023/07/26 04:57:24;;;;;;;2.67;1.20;;;13.60;85.60;;;;;;4826789;29;20141;-82
2023/07/26 04:59:51;;;;;;;3.00;1.50;;;13.70;85.70;;;;;;4728930;29;20069;-82
2023/07/26 05:02:18;;;;;;;2.80;1.48;;;13.70;85.70;;;;;;4812429;29;20499;-82
2023/07/26 05:04:45;;;;;;;3.08;1.70;;;13.70;85.70;;;;;;4804320;29;20063;-82
2023/07/26 05:07:12;;;;;;;2.65;1.70;;;13.70;85.70;;;;;;4804120;29;20054;-82
2023/07/26 05:09:39;;;;;;;2.20;1.10;;;13.70;85.70;;;;;;4837288;29;20054;-82
2023/07/26 05:12:07;;;;;;;2.22;1.40;;;13.80;85.80;;;;;;4817569;29;20057;-82
2023/07/26 05:14:34;;;;;;;3.78;1.20;;;13.80;85.80;;;;;;4832470;29;20054;-82
2023/07/26 05:17:01;;;;;;;3.00;1.48;;;13.90;85.80;;;;;;4806309;29;20038;-82
2023/07/26 05:19:29;;;;;;;2.47;1.40;;;13.90;85.70;;;;;;4826399;29;20050;-82
2023/07/26 05:21:56;;;;;;;2.40;1.20;;;13.90;85.60;;;;;;4836987;29;20062;-81
2023/07/26 05:24:23;;;;;;;2.50;1.30;;;14.00;85.50;;;;;;4826616;29;20506;-81
2023/07/26 05:26:50;;;;;;;2.42;1.27;;;14.10;85.40;;;;;;4809929;29;20046;-81
2023/07/26 05:29:17;;;;;;;2.58;1.52;;;14.30;85.20;;;;;;4823138;29;20073;-81
2023/07/26 05:31:45;;;;;;;2.80;1.50;;;14.40;85.00;;;;;;4789830;29;20046;-81
2023/07/26 05:34:12;;;;;;;3.15;1.40;;;14.50;84.80;;;;;;4815881;29;20067;-80
2023/07/26 05:36:59;;;;;;;2.35;1.45;;;14.60;84.60;;;;;;4820018;29;20052;-82
2023/07/26 05:39:26;;;;;;;2.72;1.50;;;14.70;84.30;;;;;;4843302;29;20062;-81
2023/07/26 05:41:54;;;;;;;2.63;1.63;;;14.80;84.10;;;;;;4803221;29;20045;-82
2023/07/26 05:44:21;;;;;;;3.10;1.63;;;14.90;84.00;;;;;;4822945;29;20041;-81
2023/07/26 05:46:51;;;;;;;3.35;1.65;;;14.90;84.00;;;;;;4823504;29;20058;-82
2023/07/26 05:49:18;;;;;;;4.45;1.77;;;14.90;84.10;;;;;;4847679;29;20042;-81
2023/07/26 05:51:45;;;;;;;3.80;2.05;;;14.90;84.10;;;;;;4817346;29;20179;-81
2023/07/26 05:54:50;;;;;;;3.03;1.73;;;14.90;84.20;;;;;;4834610;29;20053;-80
2023/07/26 05:57:18;;;;;;;3.47;2.25;;;14.90;84.20;;;;;;4845934;29;20045;-80
2023/07/26 05:59:45;;;;;;;3.83;2.53;;;14.80;84.30;;;;;;4838236;29;20046;-80
2023/07/26 06:02:12;;;;;;;3.33;1.85;;;14.80;84.40;;;;;;4814611;29;20062;-81
2023/07/26 06:04:39;;;;;;;3.08;1.70;;;14.90;84.40;;;;;;4799244;29;20060;-81
2023/07/26 06:07:07;;;;;;;5.95;2.05;;;14.90;84.30;;;;;;4811242;29;20585;-81
2023/07/26 06:09:34;;;;;;;2.65;1.45;;;15.00;84.30;;;;;;4814890;29;20050;-81
2023/07/26 06:12:20;;;;;;;2.97;1.15;;;15.20;84.10;;;;;;4797331;29;20046;-81
2023/07/26 06:14:47;;;;;;;3.85;2.10;;;15.40;83.70;;;;;;4820983;29;20057;-81
2023/07/26 06:17:14;;;;;;;4.07;2.65;;;15.60;83.30;;;;;;4830270;29;20052;-80
2023/07/26 06:19:41;;;;;;;5.47;3.60;;;15.80;82.90;;;;;;4806534;29;20050;-80
2023/07/26 06:22:12;;;;;;;8.50;4.20;;;16.00;82.70;;;;;;4822120;29;20050;-81
2023/07/26 06:24:39;;;;;;;6.20;4.25;;;16.00;82.40;;;;;;4831354;29;20097;-80
2023/07/26 06:27:06;;;;;;;5.88;3.75;;;16.20;82.30;;;;;;4813430;29;20050;-80
2023/07/26 06:29:35;;;;;;;6.28;2.90;;;16.40;81.90;;;;;;4821430;29;20129;-80
2023/07/26 06:32:02;;;;;;;4.93;3.42;;;16.60;81.50;;;;;;4808361;29;20050;-81
2023/07/26 06:34:29;;;;;;;6.68;4.00;;;16.80;81.20;;;;;;4820640;29;20455;-81
2023/07/26 06:36:56;;;;;;;5.65;3.50;;;16.80;81.00;;;;;;4834033;29;20153;-81
2023/07/26 06:39:26;;;;;;;5.65;3.58;;;16.80;81.10;;;;;;4809572;29;20057;-81
2023/07/26 06:41:54;;;;;;;4.40;3.13;;;16.80;81.20;;;;;;4827230;29;20141;-82
2023/07/26 06:44:21;;;;;;;5.68;2.95;;;16.70;81.30;;;;;;4825495;29;20416;-81
2023/07/26 06:46:49;;;;;;;8.30;3.72;;;16.80;81.50;;;;;;4807852;29;20063;-81
2023/07/26 06:49:16;;;;;;;7.22;3.55;;;16.70;81.70;;;;;;4817364;29;20050;-82
2023/07/26 06:51:43;;;;;;;5.13;3.80;;;16.70;81.80;;;;;;4828968;29;21028;-81
2023/07/26 06:54:10;;;;;;;5.97;3.95;;;16.70;82.00;;;;;;4797023;29;20050;-81
2023/07/26 06:56:37;;;;;;;6.65;3.95;;;16.60;82.10;;;;;;4812830;29;20046;-81
2023/07/26 06:59:11;;;;;;;7.25;3.75;;;16.60;82.40;;;;;;4805974;29;20081;-81
2023/07/26 07:01:38;;;;;;;6.45;3.50;;;16.50;82.50;;;;;;4819049;29;20082;-81
2023/07/26 07:04:11;;;;;;;5.80;3.10;;;16.50;82.70;;;;;;4841155;29;20109;-81
2023/07/26 07:06:42;;;;;;;4.75;2.63;;;16.50;82.80;;;;;;4811842;29;20061;-81
2023/07/26 07:09:12;;;;;;;4.80;2.80;;;16.60;82.70;;;;;;4825044;29;20069;-81
2023/07/26 07:11:39;;;;;;;4.60;3.25;;;16.70;82.60;;;;;;4848947;29;20038;-81
2023/07/26 07:14:06;;;;;;;4.50;2.88;;;16.80;82.50;;;;;;4802540;29;20069;-81
2023/07/26 07:16:37;;;;;;;5.43;2.60;;;16.70;82.30;;;;;;4832210;29;20068;-81
2023/07/26 07:19:04;;;;;;;6.95;4.20;;;16.70;82.50;;;;;;4828732;29;20133;-81
2023/07/26 07:21:31;;;;;;;6.95;4.78;;;16.60;83.10;;;;;;4808633;29;20061;-81
2023/07/26 07:23:59;;;;;;;8.90;5.07;;;16.40;83.70;;;;;;4805666;29;20057;-81
2023/07/26 07:26:26;;;;;;;8.48;5.05;;;16.10;84.60;;;;;;4809173;29;20060;-81
2023/07/26 07:28:53;;;;;;;9.57;6.22;;;15.90;85.50;;;;;;4815300;29;20073;-82
2023/07/26 07:31:20;;;;;;;10.02;6.32;;;15.70;86.50;;;;;;4816481;29;20049;-81
2023/07/26 07:33:47;;;;;;;10.10;6.53;;;15.50;87.50;;;;;;4813842;29;20057;-81
2023/07/26 07:36:18;;;;;;;10.52;6.50;;;15.20;88.60;;;;;;4817918;29;20071;-81
2023/07/26 07:38:46;;;;;;;8.05;5.97;;;15.00;90.00;;;;;;4812894;29;20058;-82
2023/07/26 07:41:15;;;;;;;9.07;5.55;;;14.80;90.40;;;;;;4831189;29;20042;-84
2023/07/26 07:43:42;;;;;;;8.63;5.20;;;14.60;90.90;;;;;;4824168;29;20058;-83
2023/07/26 07:46:09;;;;;;;8.88;4.32;;;14.40;91.10;;;;;;4813092;29;20052;-85
2023/07/26 07:48:37;;;;;;;6.97;4.10;;;14.30;91.20;;;;;;4815483;29;20050;-86
2023/07/26 07:51:04;;;;;;;7.00;4.20;;;14.30;91.60;;;;;;4800021;29;20050;-85
2023/07/26 07:53:31;;;;;;;6.35;3.30;;;14.10;91.90;;;;;;4811139;29;20460;-83
2023/07/26 07:56:03;;;;;;;4.03;2.08;;;14.00;92.00;;;;;;4809732;29;20379;-84
2023/07/26 07:58:30;;;;;;;2.95;1.27;;;13.80;92.20;;;;;;4808858;29;20057;-83
2023/07/26 08:00:59;;;;;;;2.30;1.08;;;13.60;92.30;;;;;;4826166;29;20148;-83
2023/07/26 08:03:26;;;;;;;1.85;0.73;;;13.50;92.30;;;;;;4815112;29;20052;-82
2023/07/26 08:05:54;;;;;;;1.13;0.47;;;13.60;92.20;;;;;;4810504;29;20049;-82
2023/07/26 08:08:22;;;;;;;1.88;0.57;;;13.70;92.10;;;;;;4795442;29;20049;-83
2023/07/26 08:10:50;;;;;;;1.02;0.40;;;13.80;92.00;;;;;;4813556;29;20045;-82
2023/07/26 08:13:17;;;;;;;1.42;0.40;;;13.80;91.80;;;;;;4798030;29;20045;-81
2023/07/26 08:15:44;;;;;;;2.53;0.55;;;14.00;91.80;;;;;;4813948;29;20068;-81
2023/07/26 08:18:12;;;;;;;2.25;0.30;;;14.10;91.70;;;;;;4806033;29;20046;-82
2023/07/26 08:20:39;;;;;;;2.28;0.68;;;14.10;91.70;;;;;;4807083;29;20061;-81
2023/07/26 08:23:06;;;;;;;1.73;0.47;;;14.20;91.60;;;;;;4820728;29;20471;-82
2023/07/26 08:25:34;;;;;;;0.65;0.38;;;14.30;91.60;;;;;;4804518;29;20048;-81
2023/07/26 08:28:01;;;;;;;1.30;0.40;;;14.60;91.50;;;;;;4830244;29;20073;-81
2023/07/26 08:30:28;;;;;;;2.30;0.65;;;14.80;91.30;;;;;;4828060;29;20104;-81
2023/07/26 08:32:56;;;;;;;1.33;0.52;;;14.90;91.10;;;;;;4819084;29;20077;-81
2023/07/26 08:35:24;;;;;;;1.90;0.77;;;15.20;91.00;;;;;;4825959;29;20045;-83
2023/07/26 08:37:51;;;;;;;2.15;0.80;;;15.30;90.90;;;;;;4843078;29;20064;-82
2023/07/26 08:40:19;;;;;;;1.48;0.50;;;15.40;90.90;;;;;;4822860;29;20514;-83
2023/07/26 08:42:46;;;;;;;1.40;0.70;;;15.40;90.90;;;;;;4831671;29;20046;-84
2023/07/26 08:45:15;;;;;;;1.33;0.50;;;15.50;90.80;;;;;;4835751;29;20061;-83
2023/07/26 08:47:43;;;;;;;0.98;0.55;;;15.60;90.70;;;;;;4816598;29;20094;-80
2023/07/26 08:50:10;;;;;;;2.88;0.60;;;15.70;90.70;;;;;;4826173;29;20086;-82
2023/07/26 08:52:37;;;;;;;1.05;0.60;;;15.90;90.60;;;;;;4832600;29;20062;-77
2023/07/26 08:55:06;;;;;;;2.60;0.80;;;16.00;90.60;;;;;;4824214;29;20065;-77
2023/07/26 08:57:33;;;;;;;0.75;0.40;;;16.10;90.60;;;;;;4835726;29;20074;-77
2023/07/26 09:00:05;;;;;;;1.33;0.63;;;16.20;90.50;;;;;;4854962;29;20057;-78
2023/07/26 09:02:34;;;;;;;1.38;0.50;;;16.30;90.40;;;;;;4811871;29;20102;-79
2023/07/26 09:05:01;;;;;;;2.10;0.88;;;16.50;90.30;;;;;;4808037;29;20111;-78
2023/07/26 09:07:28;;;;;;;1.55;0.73;;;16.60;90.20;;;;;;4827815;29;20049;-78
2023/07/26 09:09:56;;;;;;;1.90;0.77;;;16.70;90.10;;;;;;4808009;29;20050;-78
2023/07/26 09:12:25;;;;;;;1.42;0.60;;;17.00;89.90;;;;;;4811873;29;20053;-78
2023/07/26 09:14:58;;;;;;;3.50;1.40;;;17.10;89.50;;;;;;4823021;29;20097;-78
2023/07/26 09:17:41;;;;;;;1.75;0.70;;;17.20;89.10;;;;;;4824178;29;20114;-79
2023/07/26 09:20:24;;;;;;;1.70;0.90;;;17.20;89.00;;;;;;4829314;29;20045;-79
2023/07/26 09:23:03;;;;;;;2.60;0.90;;;17.30;88.90;;;;;;4838679;29;20046;-78
2023/07/26 09:25:34;;;;;;;2.05;0.95;;;17.30;88.60;;;;;;4836672;29;20113;-78
2023/07/26 09:28:02;;;;;;;1.17;0.77;;;17.30;88.60;;;;;;4853476;29;20491;-78
2023/07/26 09:30:33;;;;;;;2.15;1.23;;;17.50;88.70;;;;;;4815850;29;20444;-79
2023/07/26 09:33:02;;;;;;;4.15;1.38;;;17.70;88.20;;;;;;4819811;29;20537;-78
2023/07/26 09:35:49;;;;;;;3.92;1.70;;;17.80;87.70;;;;;;4835714;29;20140;-79
2023/07/26 09:38:26;;;;;;;3.17;1.70;;;17.90;87.70;;;;;;4826752;29;20057;-78
2023/07/26 09:40:54;;;;;;;4.18;1.88;;;17.90;87.50;;;;;;4818796;29;20068;-80
2023/07/26 09:43:32;;;;;;;5.70;2.42;;;18.00;87.20;;;;;;4823406;29;20132;-82
2023/07/26 09:46:07;;;;;;;4.85;1.92;;;18.10;86.80;;;;;;4834784;29;20079;-81
2023/07/26 09:48:59;;;;;;;4.90;2.33;;;18.30;86.80;;;;;;4800277;29;20065;-78
2023/07/26 09:51:29;;;;;;;4.60;2.90;;;18.50;86.20;;;;;;4830327;29;20056;-81
2023/07/26 09:53:58;;;;;;;6.03;3.20;;;18.50;85.80;;;;;;4824067;29;20145;-85
2023/07/26 09:56:34;;;;;;;3.95;2.67;;;18.50;85.70;;;;;;4799637;29;20798;-81
2023/07/26 09:59:03;;;;;;;5.95;3.53;;;18.60;85.60;;;;;;4818597;29;20137;-88
2023/07/26 10:01:36;;;;;;;4.75;3.13;;;18.90;85.10;;;;;;4827034;29;20229;-85
2023/07/26 10:04:06;;;;;;;5.85;3.28;;;19.10;84.60;;;;;;4835025;29;20056;-83
2023/07/26 10:06:38;;;;;;;4.93;2.85;;;19.20;84.20;;;;;;4830860;29;20045;-84
2023/07/26 10:09:05;;;;;;;5.65;3.15;;;19.00;84.00;;;;;;4835001;29;20102;-81
2023/07/26 10:11:33;;;;;;;5.65;3.15;;;19.10;84.10;;;;;;4811349;29;20049;-85
2023/07/26 10:14:03;;;;;;;5.20;2.85;;;19.10;83.80;;;;;;4813263;29;20188;-81
2023/07/26 10:16:30;;;;;;;5.28;3.10;;;19.20;83.30;;;;;;4834461;29;20045;-82
2023/07/26 10:19:01;;;;;;;4.25;2.83;;;19.40;82.90;;;;;;4817351;29;20049;-85
2023/07/26 10:21:31;;;;;;;4.90;2.50;;;19.70;82.40;;;;;;4787783;29;20402;-84
2023/07/26 10:24:02;;;;;;;5.47;2.42;;;19.90;81.30;;;;;;4815007;29;20120;-86
2023/07/26 10:26:32;;;;;;;6.50;3.20;;;19.90;81.40;;;;;;4836445;29;20149;-84
2023/07/26 10:29:02;;;;;;;6.63;3.28;;;19.60;80.70;;;;;;4834974;29;20054;-79
2023/07/26 10:31:30;;;;;;;7.38;3.58;;;18.80;82.40;;;;;;4817526;29;20366;-84
2023/07/26 10:33:58;;;;;;;4.47;2.45;;;17.70;85.50;;;;;;4812510;29;20057;-85
2023/07/26 10:36:30;;;;;;;8.43;2.95;;;16.40;89.00;;;;;;4827803;29;20056;-83
2023/07/26 10:39:09;;;;;;;3.13;1.63;;;15.80;90.60;;;;;;4823365;29;20070;-84
2023/07/26 10:41:36;;;;;;;2.90;1.35;;;15.50;91.20;;;;;;4819079;29;20048;-85
2023/07/26 10:44:09;;;;;;;3.75;1.17;;;15.30;91.40;;;;;;4828731;29;20054;-83
2023/07/26 10:46:53;;;;;;;2.05;0.90;;;15.30;91.40;;;;;;4827690;29;20049;-84
2023/07/26 10:49:28;;;;;;;2.88;1.10;;;15.50;91.20;;;;;;4839230;29;20058;-85
2023/07/26 10:51:58;;;;;;;2.67;1.20;;;15.70;91.00;;;;;;4815550;29;20057;-87
2023/07/26 10:55:07;;;;;;;2.90;1.25;;;16.00;90.90;;;;;;4834653;29;20102;-83
2023/07/26 10:57:36;;;;;;;4.00;1.80;;;16.20;90.70;;;;;;4831570;29;20049;-83
2023/07/26 11:00:14;;;;;;;4.00;2.00;;;16.30;90.70;;;;;;4835435;29;20056;-84
2023/07/26 11:02:48;;;;;;;3.38;1.67;;;16.30;90.90;;;;;;4810319;29;20157;-78
2023/07/26 11:05:21;;;;;;;4.85;2.10;;;16.40;90.90;;;;;;4828299;29;20045;-78
2023/07/26 11:08:07;;;;;;;3.80;1.60;;;16.50;90.90;;;;;;4835169;29;20102;-83
2023/07/26 11:10:48;;;;;;;3.67;1.42;;;16.80;90.70;;;;;;4830900;29;20050;-84
2023/07/26 11:13:20;;;;;;;4.32;1.42;;;17.10;90.50;;;;;;4839090;29;20081;-84
2023/07/26 11:15:50;;;;;;;4.72;1.60;;;17.40;90.30;;;;;;4822801;29;20411;-83
2023/07/26 11:18:42;;;;;;;4.43;1.92;;;17.80;90.30;;;;;;4821194;29;20095;-84
2023/07/26 11:21:15;;;;;;;3.55;1.58;;;18.30;89.80;;;;;;4821006;29;20065;-85
2023/07/26 11:23:43;;;;;;;3.55;1.67;;;18.70;89.30;;;;;;4802294;29;20061;-85
2023/07/26 11:26:11;;;;;;;3.95;2.03;;;19.00;88.80;;;;;;4843329;29;20092;-85
2023/07/26 11:28:38;;;;;;;5.38;2.30;;;19.10;88.50;;;;;;4823622;29;20058;-84
2023/07/26 11:31:06;;;;;;;4.85;2.05;;;19.00;88.60;;;;;;4830023;29;20505;-79
2023/07/26 11:33:38;;;;;;;3.33;1.60;;;19.10;88.60;;;;;;4838368;29;20047;-78
2023/07/26 11:36:08;;;;;;;3.65;1.60;;;19.20;88.20;;;;;;4849033;29;20057;-79
2023/07/26 11:38:42;;;;;;;4.68;1.52;;;19.30;87.90;;;;;;4840563;29;20143;-78
2023/07/26 11:41:09;;;;;;;2.45;1.23;;;19.30;87.80;;;;;;4846536;29;20521;-81
2023/07/26 11:43:38;;;;;;;3.83;1.33;;;19.30;87.80;;;;;;4810903;29;20913;-76
2023/07/26 11:46:05;;;;;;;4.07;2.00;;;19.30;87.90;;;;;;4815565;29;20058;-79
2023/07/26 11:48:34;;;;;;;3.70;1.92;;;19.10;88.30;;;;;;4812969;29;20115;-77
2023/07/26 11:51:05;;;;;;;4.00;2.30;;;18.80;88.80;;;;;;4798833;29;21068;-81
2023/07/26 11:53:42;;;;;;;5.43;2.05;;;18.60;89.10;;;;;;4830894;29;21036;-77
2023/07/26 11:56:15;;;;;;;5.30;1.90;;;18.40;89.60;;;;;;4853168;29;20041;-79
2023/07/26 11:58:43;;;;;;;4.13;1.80;;;18.20;89.90;;;;;;4808401;29;20058;-80
2023/07/26 12:01:14;;;;;;;3.63;1.40;;;18.20;90.10;;;;;;4804958;29;20217;-79
2023/07/26 12:03:41;;;;;;;3.58;1.23;;;18.60;89.30;;;;;;4817765;29;20046;-82
2023/07/26 12:06:10;;;;;;;5.00;1.95;;;19.30;87.60;;;;;;4815624;29;20103;-80
2023/07/26 12:08:37;;;;;;;4.57;1.63;;;19.50;85.60;;;;;;4830011;29;20415;-80
2023/07/26 12:11:06;;;;;;;4.68;1.77;;;19.30;85.60;;;;;;4826514;29;20053;-79
2023/07/26 12:13:35;;;;;;;5.97;1.92;;;19.10;85.60;;;;;;4830483;29;20071;-78
2023/07/26 12:16:03;;;;;;;4.10;1.48;;;18.90;85.60;;;;;;4825255;29;20137;-79
2023/07/26 12:18:31;;;;;;;3.65;1.35;;;18.70;85.70;;;;;;4813802;29;20069;-79
2023/07/26 12:21:03;;;;;;;5.43;1.75;;;18.60;86.10;;;;;;4834729;29;20102;-79
2023/07/26 12:23:53;;;;;;;3.05;1.10;;;18.50;86.30;;;;;;4830204;29;20054;-78
2023/07/26 12:26:21;;;;;;;3.40;1.33;;;18.60;86.10;;;;;;4837576;29;20064;-79
2023/07/26 12:28:51;;;;;;;3.58;1.52;;;18.60;85.80;;;;;;4824932;29;20060;-78
2023/07/26 12:31:29;;;;;;;2.10;0.95;;;18.80;85.60;;;;;;4834482;29;20050;-78
2023/07/26 12:34:10;;;;;;;3.47;1.17;;;19.10;85.00;;;;;;4818542;29;20042;-79
2023/07/26 12:36:41;;;;;;;1.75;0.85;;;20.10;83.10;;;;;;4829348;29;20046;-78
2023/07/26 12:39:09;;;;;;;3.30;1.10;;;20.70;80.90;;;;;;4847709;29;20339;-78
2023/07/26 12:41:37;;;;;;;3.47;1.25;;;21.60;79.60;;;;;;4819543;29;20298;-79
2023/07/26 12:44:09;;;;;;;2.22;1.30;;;22.20;77.20;;;;;;4853143;29;20058;-81
2023/07/26 12:46:38;;;;;;;3.10;1.30;;;22.60;75.50;;;;;;4837347;29;20057;-80
2023/07/26 12:49:10;;;;;;;2.22;0.93;;;22.90;74.60;;;;;;4841303;29;20053;-80
2023/07/26 12:51:40;;;;;;;3.03;1.00;;;23.20;72.60;;;;;;4805002;29;20069;-80
2023/07/26 12:54:07;;;;;;;2.80;1.10;;;23.60;72.00;;;;;;4832878;29;20125;-80
2023/07/26 12:56:35;;;;;;;2.58;1.00;;;23.80;69.80;;;;;;4815733;29;20053;-87